Time;durP1;ratioP1;P1;durP2;ratioP2;P2;SDS_P1;SDS_P2;PMS_P1;PMS_P2;Temp;Humidity;BMP_temperature;BMP_pressure;BME280_temperature;BME280_humidity;BME280_pressure;Samples;Min_cycle;Max_cycle;Signal;HPM_P1;HPM_P2
2023/11/14 00:01:44;;;;;;;1.48;0.90;;;14.00;99.90;;;;;;5031623;28;20321;-93
2023/11/14 00:04:12;;;;;;;1.15;0.80;;;14.00;99.90;;;;;;5009766;28;20195;-93
2023/11/14 00:09:46;;;;;;;0.90;0.90;;;13.80;99.90;;;;;;5028797;28;20228;-93
2023/11/14 00:12:13;;;;;;;0.82;0.82;;;13.70;99.90;;;;;;5032654;28;20221;-93
2023/11/14 00:14:43;;;;;;;1.15;0.80;;;13.70;99.90;;;;;;5006840;28;20364;-93
2023/11/14 00:17:10;;;;;;;1.42;0.90;;;13.80;99.90;;;;;;5026077;28;20245;-92
2023/11/14 00:19:38;;;;;;;0.90;0.80;;;13.70;99.90;;;;;;5027672;28;20295;-93
2023/11/14 00:30:32;;;;;;;1.30;1.00;;;13.60;99.90;;;;;;5001252;28;20225;-93
2023/11/14 00:33:00;;;;;;;1.70;0.85;;;13.60;99.90;;;;;;5012323;28;20285;-93
2023/11/14 00:35:27;;;;;;;0.90;0.90;;;13.60;99.90;;;;;;5040123;28;20558;-93
2023/11/14 00:37:56;;;;;;;1.10;1.00;;;13.50;99.90;;;;;;4998094;28;20254;-93
2023/11/14 00:40:44;;;;;;;1.35;0.88;;;13.50;99.90;;;;;;4988746;28;20206;-93
2023/11/14 00:45:52;;;;;;;1.17;1.00;;;13.40;99.90;;;;;;5015377;28;20206;-93
2023/11/14 00:48:20;;;;;;;3.63;0.98;;;13.30;99.90;;;;;;5034173;28;20210;-93
2023/11/14 00:51:08;;;;;;;2.78;1.08;;;13.30;99.90;;;;;;5005317;28;20223;-93
2023/11/14 00:58:58;;;;;;;0.88;0.88;;;13.20;99.90;;;;;;5007734;28;20202;-93
2023/11/14 01:01:25;;;;;;;1.25;0.98;;;13.20;99.90;;;;;;5027003;28;20223;-93
2023/11/14 01:03:52;;;;;;;1.15;0.80;;;13.20;99.90;;;;;;5030623;28;20209;-93
2023/11/14 01:06:19;;;;;;;0.77;0.77;;;13.20;99.90;;;;;;5031612;28;20205;-93
2023/11/14 01:16:52;;;;;;;2.10;0.80;;;13.30;99.90;;;;;;4994008;28;20259;-93
2023/11/14 01:19:20;;;;;;;0.80;0.80;;;13.30;99.90;;;;;;5034092;28;20226;-93
2023/11/14 01:21:48;;;;;;;0.70;0.70;;;13.20;99.90;;;;;;5034691;28;20226;-93
2023/11/14 01:26:57;;;;;;;0.82;0.82;;;13.20;99.90;;;;;;5025609;28;20276;-93
2023/11/14 01:34:47;;;;;;;1.95;0.80;;;13.30;99.90;;;;;;4989052;28;20586;-93
2023/11/14 01:39:56;;;;;;;0.90;0.90;;;13.20;99.90;;;;;;5046183;28;20238;-93
2023/11/14 01:42:44;;;;;;;0.70;0.70;;;13.20;99.90;;;;;;5052239;28;20220;-93
2023/11/14 01:50:57;;;;;;;0.68;0.68;;;13.20;99.90;;;;;;5001882;28;20306;-92
2023/11/14 01:53:26;;;;;;;1.35;0.68;;;13.10;99.90;;;;;;5010566;28;20199;-93
2023/11/14 01:58:59;;;;;;;3.40;0.80;;;12.60;99.90;;;;;;5011904;28;20217;-93
2023/11/14 02:01:27;;;;;;;2.72;0.90;;;12.40;99.90;;;;;;4996010;28;20273;-93
2023/11/14 02:03:54;;;;;;;1.40;0.90;;;12.40;99.90;;;;;;5021528;28;20659;-93
2023/11/14 02:06:21;;;;;;;1.40;1.02;;;12.30;99.90;;;;;;5033859;28;20202;-93
2023/11/14 02:14:12;;;;;;;4.57;1.13;;;12.10;99.90;;;;;;5003913;28;20211;-93
2023/11/14 02:19:27;;;;;;;3.88;1.20;;;11.80;99.90;;;;;;4997764;28;20244;-93
2023/11/14 02:27:19;;;;;;;4.10;1.67;;;11.50;99.90;;;;;;5017697;28;20210;-92
2023/11/14 02:32:27;;;;;;;7.20;1.65;;;11.40;99.90;;;;;;5003598;28;20210;-92
2023/11/14 02:37:35;;;;;;;3.45;1.30;;;11.40;99.90;;;;;;5004564;28;20263;-92
2023/11/14 02:45:49;;;;;;;3.97;1.50;;;11.30;99.90;;;;;;5001566;28;20932;-92
2023/11/14 02:48:16;;;;;;;4.90;1.55;;;11.30;99.90;;;;;;5022934;28;20199;-92
2023/11/14 02:50:50;;;;;;;5.93;1.67;;;11.30;99.90;;;;;;5004982;28;20574;-92
2023/11/14 02:56:00;;;;;;;5.25;1.55;;;11.10;99.90;;;;;;4990892;28;20203;-92
2023/11/14 03:01:52;;;;;;;5.18;1.67;;;11.20;99.90;;;;;;4984963;28;20257;-92
2023/11/14 03:04:19;;;;;;;6.63;1.80;;;11.10;99.90;;;;;;5008724;28;20203;-92
2023/11/14 03:06:46;;;;;;;7.28;1.70;;;11.10;99.90;;;;;;5028465;28;20198;-92
2023/11/14 03:09:16;;;;;;;4.50;1.73;;;11.10;99.90;;;;;;5000086;28;20284;-92
2023/11/14 03:11:43;;;;;;;4.50;1.52;;;11.00;99.90;;;;;;5029894;28;20198;-92
2023/11/14 03:16:52;;;;;;;6.13;1.73;;;10.90;99.90;;;;;;5004890;28;20207;-92
2023/11/14 03:19:19;;;;;;;7.50;1.80;;;10.90;99.90;;;;;;5008784;28;20210;-91
2023/11/14 03:21:46;;;;;;;5.00;1.70;;;10.90;99.90;;;;;;5011047;28;20349;-92
2023/11/14 03:24:13;;;;;;;4.88;1.80;;;11.00;99.90;;;;;;5010018;28;20242;-92
2023/11/14 03:26:40;;;;;;;5.72;1.90;;;10.90;99.90;;;;;;5021574;28;20645;-91
2023/11/14 03:29:09;;;;;;;4.88;2.00;;;11.00;99.90;;;;;;5034933;28;20203;-92
2023/11/14 03:31:55;;;;;;;6.47;2.00;;;11.00;99.90;;;;;;5031010;28;20293;-92
2023/11/14 03:34:22;;;;;;;7.88;1.95;;;11.00;99.90;;;;;;5003919;28;20206;-92
2023/11/14 03:36:52;;;;;;;5.85;1.90;;;10.90;99.90;;;;;;5012116;28;20210;-92
2023/11/14 03:39:19;;;;;;;6.88;2.08;;;10.80;99.90;;;;;;5026793;28;20195;-92
2023/11/14 03:41:49;;;;;;;5.15;1.90;;;10.90;99.90;;;;;;5033627;28;20226;-92
2023/11/14 03:50:02;;;;;;;6.00;1.70;;;10.80;99.90;;;;;;5008273;28;20256;-92
2023/11/14 03:52:29;;;;;;;9.88;2.00;;;10.70;99.90;;;;;;4999809;28;20226;-92
2023/11/14 04:03:05;;;;;;;3.50;1.85;;;10.70;99.90;;;;;;5000756;28;20361;-92
2023/11/14 04:05:32;;;;;;;9.40;1.90;;;10.80;99.90;;;;;;5015580;28;20679;-92
2023/11/14 04:08:02;;;;;;;8.55;2.28;;;10.80;99.90;;;;;;5010938;28;20840;-92
2023/11/14 04:10:30;;;;;;;9.68;2.00;;;10.80;99.90;;;;;;4994143;28;20203;-92
2023/11/14 04:15:57;;;;;;;4.45;1.88;;;10.70;99.90;;;;;;4985015;28;20287;-92
2023/11/14 04:21:06;;;;;;;6.22;1.88;;;10.70;99.90;;;;;;5010952;28;20210;-92
2023/11/14 04:26:14;;;;;;;3.85;2.03;;;10.80;99.90;;;;;;5000371;28;20296;-93
2023/11/14 04:28:42;;;;;;;9.13;2.30;;;10.70;99.90;;;;;;5013775;28;20203;-91
2023/11/14 04:31:28;;;;;;;4.38;1.77;;;10.80;99.90;;;;;;5022639;28;20238;-92
2023/11/14 04:37:14;;;;;;;9.38;2.10;;;10.80;99.90;;;;;;4949994;28;20657;-92
2023/11/14 04:39:42;;;;;;;5.85;1.85;;;10.80;99.90;;;;;;4948272;29;20292;-92
2023/11/14 04:42:11;;;;;;;6.03;1.90;;;10.80;99.90;;;;;;4990839;28;20219;-92
2023/11/14 04:44:37;;;;;;;5.38;1.80;;;10.80;99.90;;;;;;5027079;28;20211;-92
2023/11/14 04:47:07;;;;;;;5.10;1.80;;;10.70;99.90;;;;;;5004359;28;20280;-92
2023/11/14 04:52:35;;;;;;;6.68;2.20;;;10.60;99.90;;;;;;5006297;28;20253;-92
2023/11/14 04:55:04;;;;;;;5.50;1.80;;;10.70;99.90;;;;;;5040913;28;20202;-91
2023/11/14 04:57:31;;;;;;;6.72;1.75;;;10.70;99.90;;;;;;5010923;28;20707;-91
2023/11/14 04:59:57;;;;;;;5.93;2.00;;;10.70;99.90;;;;;;5006234;28;20208;-92
2023/11/14 05:02:24;;;;;;;6.63;2.00;;;10.70;99.90;;;;;;5018255;28;20219;-91
2023/11/14 05:04:51;;;;;;;4.78;2.05;;;10.60;99.90;;;;;;5020907;28;20199;-92
2023/11/14 05:10:25;;;;;;;5.28;2.00;;;10.70;99.90;;;;;;4985275;28;20218;-92
2023/11/14 05:12:52;;;;;;;6.85;1.63;;;10.80;99.90;;;;;;5018739;28;20206;-92
2023/11/14 05:15:18;;;;;;;6.45;2.00;;;10.70;99.90;;;;;;5028840;28;20195;-92
2023/11/14 05:17:46;;;;;;;5.38;1.90;;;10.60;99.90;;;;;;5006407;28;20195;-92
2023/11/14 05:20:13;;;;;;;6.32;2.30;;;10.60;99.90;;;;;;5025497;28;20227;-91
2023/11/14 05:25:22;;;;;;;6.70;1.80;;;10.60;99.90;;;;;;5026539;28;20262;-91
2023/11/14 05:27:49;;;;;;;5.05;1.58;;;10.60;99.90;;;;;;5027665;28;20195;-91
2023/11/14 05:30:16;;;;;;;6.43;2.03;;;10.60;99.90;;;;;;5020568;28;20208;-92
2023/11/14 05:32:43;;;;;;;5.90;1.95;;;10.60;99.90;;;;;;5028685;28;20234;-91
2023/11/14 05:35:12;;;;;;;4.88;1.80;;;10.70;99.90;;;;;;5029836;28;20301;-92
2023/11/14 05:37:39;;;;;;;4.95;1.55;;;10.90;99.90;;;;;;5030808;28;20198;-94
2023/11/14 05:42:50;;;;;;;4.95;1.60;;;10.80;99.90;;;;;;5032192;28;20245;-94
2023/11/14 05:45:17;;;;;;;4.38;1.65;;;10.80;99.90;;;;;;5029602;28;20206;-93
2023/11/14 05:47:44;;;;;;;4.13;1.75;;;10.80;99.90;;;;;;5010088;28;20210;-91
2023/11/14 05:50:11;;;;;;;4.45;1.50;;;10.80;99.90;;;;;;5019366;28;20269;-92
2023/11/14 05:52:38;;;;;;;5.07;1.70;;;10.70;99.90;;;;;;5012271;28;20214;-93
2023/11/14 05:55:31;;;;;;;3.47;1.67;;;10.60;99.90;;;;;;5016422;28;20194;-92
2023/11/14 06:00:42;;;;;;;2.70;1.70;;;10.80;99.90;;;;;;5026801;28;20198;-92
2023/11/14 06:03:09;;;;;;;4.90;1.80;;;10.70;99.90;;;;;;5033249;28;20226;-92
2023/11/14 06:05:38;;;;;;;3.15;1.98;;;10.70;99.90;;;;;;4999996;28;20252;-92
2023/11/14 06:08:06;;;;;;;6.18;2.03;;;10.60;99.90;;;;;;5029201;28;20198;-92
2023/11/14 06:10:32;;;;;;;4.20;1.63;;;10.60;99.90;;;;;;5015958;28;20206;-93
2023/11/14 06:13:04;;;;;;;2.53;1.80;;;10.70;99.90;;;;;;4993750;28;20195;-92
2023/11/14 06:15:30;;;;;;;4.18;1.63;;;10.80;99.90;;;;;;5024338;28;20230;-89
2023/11/14 06:17:57;;;;;;;6.13;1.65;;;10.70;99.90;;;;;;5023620;28;20203;-90
2023/11/14 06:20:24;;;;;;;4.63;1.50;;;10.70;99.90;;;;;;5031845;28;20567;-91
2023/11/14 06:22:51;;;;;;;3.20;1.60;;;10.70;99.90;;;;;;5023786;28;20214;-90
2023/11/14 06:25:18;;;;;;;4.15;1.50;;;10.70;99.90;;;;;;5030946;28;20207;-90
2023/11/14 06:27:45;;;;;;;2.42;1.20;;;10.70;99.90;;;;;;5013688;28;20652;-91
2023/11/14 06:30:14;;;;;;;2.78;1.30;;;10.70;99.90;;;;;;5010037;28;20799;-91
2023/11/14 06:32:42;;;;;;;1.65;1.30;;;10.60;99.90;;;;;;5029168;28;20289;-92
2023/11/14 06:35:09;;;;;;;1.10;1.00;;;10.60;99.90;;;;;;5023714;28;20195;-90
2023/11/14 06:37:36;;;;;;;1.23;1.10;;;10.60;99.90;;;;;;5024592;28;20810;-89
2023/11/14 06:40:04;;;;;;;2.10;1.17;;;10.50;99.90;;;;;;5000012;28;20683;-89
2023/11/14 06:42:31;;;;;;;2.35;1.40;;;10.50;99.90;;;;;;5027049;28;20226;-91
2023/11/14 06:44:58;;;;;;;1.88;1.08;;;10.60;99.90;;;;;;5025647;28;20203;-91
2023/11/14 06:47:27;;;;;;;1.52;1.10;;;10.50;99.90;;;;;;5032262;28;20202;-91
2023/11/14 06:49:54;;;;;;;1.63;1.20;;;10.50;99.90;;;;;;5004453;28;20277;-89
2023/11/14 06:52:21;;;;;;;2.80;1.20;;;10.40;99.90;;;;;;5032581;28;20848;-94
2023/11/14 06:54:48;;;;;;;6.15;1.30;;;10.40;99.90;;;;;;5028397;28;20607;-91
2023/11/14 06:57:15;;;;;;;5.47;1.33;;;10.40;99.90;;;;;;5030477;28;20217;-92
2023/11/14 06:59:42;;;;;;;3.13;1.40;;;10.30;99.90;;;;;;5007642;28;20225;-91
2023/11/14 07:05:15;;;;;;;2.03;1.50;;;10.50;99.90;;;;;;4995997;28;20203;-91
2023/11/14 07:07:41;;;;;;;2.65;1.17;;;10.40;99.90;;;;;;5025801;28;20285;-91
2023/11/14 07:10:09;;;;;;;2.17;1.27;;;10.40;99.90;;;;;;5021925;28;20311;-91
2023/11/14 07:12:37;;;;;;;5.32;1.20;;;10.30;99.90;;;;;;5023508;28;20201;-91
2023/11/14 07:20:28;;;;;;;2.00;1.10;;;10.30;99.90;;;;;;5018626;28;20237;-93
2023/11/14 07:22:55;;;;;;;1.98;1.05;;;10.40;99.90;;;;;;5022321;28;20265;-93
2023/11/14 07:25:22;;;;;;;2.50;1.20;;;10.30;99.90;;;;;;5011114;28;20198;-93
2023/11/14 07:27:51;;;;;;;2.70;1.27;;;10.30;99.90;;;;;;5008514;28;20202;-92
2023/11/14 07:30:18;;;;;;;2.92;1.30;;;10.30;99.90;;;;;;5032066;28;21093;-90
2023/11/14 07:32:46;;;;;;;2.42;1.30;;;10.30;99.90;;;;;;5024967;28;20206;-91
2023/11/14 07:35:13;;;;;;;3.45;1.27;;;10.30;99.90;;;;;;5023035;28;20199;-91
2023/11/14 07:37:40;;;;;;;2.97;1.20;;;10.30;99.90;;;;;;5025469;28;20698;-91
2023/11/14 07:40:08;;;;;;;3.13;1.55;;;10.30;99.90;;;;;;5006056;28;20726;-91
2023/11/14 07:42:35;;;;;;;3.78;1.52;;;10.30;99.90;;;;;;5006767;28;20261;-92
2023/11/14 07:45:02;;;;;;;2.58;1.40;;;10.40;99.90;;;;;;5022752;28;20191;-92
2023/11/14 07:47:31;;;;;;;1.77;1.20;;;10.40;99.90;;;;;;5014493;28;20309;-91
2023/11/14 07:50:00;;;;;;;5.78;1.00;;;10.40;99.90;;;;;;5027521;28;20203;-91
2023/11/14 07:52:28;;;;;;;2.53;1.35;;;10.50;99.90;;;;;;5004270;28;20227;-91
2023/11/14 07:55:11;;;;;;;3.28;1.00;;;10.50;99.90;;;;;;5026654;28;20237;-92
2023/11/14 07:57:38;;;;;;;1.88;0.95;;;10.50;99.90;;;;;;5019064;28;20605;-91
2023/11/14 08:02:46;;;;;;;2.88;0.90;;;10.60;99.90;;;;;;5021072;28;20205;-91
2023/11/14 08:05:15;;;;;;;1.80;1.02;;;10.60;99.90;;;;;;5054358;28;20250;-91
2023/11/14 08:07:42;;;;;;;2.05;1.02;;;10.60;99.90;;;;;;5029328;28;20187;-90
2023/11/14 08:10:09;;;;;;;2.28;0.98;;;10.60;99.90;;;;;;5018301;28;20563;-91
2023/11/14 08:12:36;;;;;;;2.08;1.10;;;10.50;99.90;;;;;;5015666;28;20210;-91
2023/11/14 08:15:04;;;;;;;1.10;1.00;;;10.60;99.90;;;;;;5031021;28;20245;-92
2023/11/14 08:17:31;;;;;;;1.17;0.88;;;10.70;99.90;;;;;;4991292;28;20195;-91
2023/11/14 08:19:58;;;;;;;3.22;1.10;;;10.80;99.90;;;;;;5005185;28;20192;-91
2023/11/14 08:22:29;;;;;;;2.67;1.08;;;10.70;99.90;;;;;;5026559;28;20206;-91
2023/11/14 08:24:56;;;;;;;1.08;0.98;;;10.80;99.90;;;;;;5014483;28;20221;-91
2023/11/14 08:27:23;;;;;;;1.70;1.08;;;10.90;99.90;;;;;;5029161;28;20574;-91
2023/11/14 08:29:49;;;;;;;1.33;1.10;;;11.00;99.90;;;;;;5004104;28;20207;-91
2023/11/14 08:32:16;;;;;;;3.50;1.50;;;11.00;99.90;;;;;;5018683;28;20313;-91
2023/11/14 08:34:44;;;;;;;2.00;1.15;;;11.00;99.90;;;;;;5028278;28;20267;-92
2023/11/14 08:37:11;;;;;;;1.63;1.20;;;11.20;99.90;;;;;;5028690;28;20252;-92
2023/11/14 08:42:20;;;;;;;1.35;1.00;;;11.40;99.90;;;;;;5021413;28;20211;-91
2023/11/14 08:44:47;;;;;;;1.02;0.90;;;11.60;99.80;;;;;;5004181;28;20226;-92
2023/11/14 08:47:14;;;;;;;1.98;1.20;;;11.60;99.30;;;;;;5005223;28;20202;-91
2023/11/14 08:49:41;;;;;;;4.18;1.40;;;11.70;99.20;;;;;;5021165;28;20214;-92
2023/11/14 08:52:08;;;;;;;1.17;1.02;;;11.60;99.80;;;;;;5020033;28;20309;-91
2023/11/14 08:54:37;;;;;;;1.35;0.90;;;11.60;99.90;;;;;;5028691;28;20199;-91
2023/11/14 08:57:27;;;;;;;1.00;1.00;;;11.50;99.90;;;;;;5021240;28;20623;-91
2023/11/14 09:00:17;;;;;;;1.73;1.30;;;11.50;99.90;;;;;;5026805;28;20209;-92
2023/11/14 09:03:04;;;;;;;1.45;1.27;;;11.60;99.90;;;;;;4987176;28;20220;-92
2023/11/14 09:05:50;;;;;;;1.55;1.25;;;11.60;99.90;;;;;;5028478;28;20470;-92
2023/11/14 09:08:17;;;;;;;1.42;1.30;;;11.60;99.90;;;;;;5016862;28;20202;-92
2023/11/14 09:10:43;;;;;;;1.23;0.70;;;11.60;99.90;;;;;;5011575;28;20203;-92
2023/11/14 09:13:13;;;;;;;1.98;1.77;;;11.60;99.90;;;;;;5012209;28;20634;-91
2023/11/14 09:15:42;;;;;;;1.67;0.98;;;11.60;99.90;;;;;;5022198;28;20214;-92
2023/11/14 09:18:30;;;;;;;0.70;0.70;;;11.70;99.50;;;;;;5024780;28;20220;-92
2023/11/14 09:21:17;;;;;;;1.80;0.88;;;11.70;98.60;;;;;;5008628;28;20225;-92
2023/11/14 09:23:44;;;;;;;2.03;1.00;;;11.70;97.50;;;;;;5025347;28;20696;-92
2023/11/14 09:26:13;;;;;;;5.38;3.90;;;11.70;97.10;;;;;;5026704;28;20206;-92
2023/11/14 09:28:41;;;;;;;3.38;2.67;;;11.70;96.10;;;;;;5015462;28;20651;-92
2023/11/14 09:31:08;;;;;;;1.70;1.10;;;11.70;96.10;;;;;;5024144;28;20199;-91
2023/11/14 09:33:36;;;;;;;2.05;0.85;;;11.80;96.20;;;;;;5029689;28;20195;-91
2023/11/14 09:36:04;;;;;;;0.55;0.55;;;11.80;95.20;;;;;;5030557;28;20643;-92
2023/11/14 09:41:32;;;;;;;1.50;0.80;;;11.80;95.20;;;;;;4992643;28;20210;-92
2023/11/14 09:47:08;;;;;;;1.65;0.63;;;11.70;93.40;;;;;;5020144;28;20580;-91
2023/11/14 09:49:38;;;;;;;1.63;1.27;;;11.50;93.80;;;;;;5007225;28;20210;-91
2023/11/14 09:52:05;;;;;;;1.88;0.90;;;11.50;93.40;;;;;;4999278;28;20218;-92
2023/11/14 09:54:34;;;;;;;0.65;0.52;;;11.50;92.60;;;;;;5019653;28;20195;-91
2023/11/14 09:57:04;;;;;;;1.75;0.90;;;11.40;92.60;;;;;;5025541;28;20204;-92
2023/11/14 10:02:37;;;;;;;1.20;1.00;;;11.30;92.50;;;;;;4977254;28;20218;-92
2023/11/14 10:05:04;;;;;;;2.35;1.10;;;11.30;92.00;;;;;;5000161;28;20684;-92
2023/11/14 10:07:32;;;;;;;1.60;0.75;;;11.30;91.20;;;;;;5027995;28;20297;-92
2023/11/14 10:12:41;;;;;;;1.42;1.00;;;11.50;90.60;;;;;;5016028;28;20215;-92
2023/11/14 10:17:52;;;;;;;1.58;0.90;;;11.60;90.20;;;;;;5020068;28;20210;-92
2023/11/14 10:20:19;;;;;;;1.73;0.80;;;11.70;88.20;;;;;;5034064;28;20203;-92
2023/11/14 10:22:47;;;;;;;0.60;0.60;;;11.80;87.30;;;;;;5032737;28;20202;-91
2023/11/14 10:28:09;;;;;;;1.17;1.00;;;11.80;86.70;;;;;;4993301;28;20726;-92
2023/11/14 10:33:51;;;;;;;1.58;0.90;;;11.90;84.60;;;;;;5019478;28;20222;-92
2023/11/14 10:36:18;;;;;;;1.17;0.80;;;12.00;83.50;;;;;;5012685;28;20288;-92
2023/11/14 10:41:44;;;;;;;0.90;0.70;;;12.10;84.00;;;;;;4993634;28;20656;-92
2023/11/14 10:49:58;;;;;;;1.05;0.80;;;12.10;81.20;;;;;;5026789;28;20674;-93
2023/11/14 10:55:07;;;;;;;1.38;0.90;;;12.10;80.30;;;;;;5022363;28;20574;-92
2023/11/14 11:06:07;;;;;;;1.55;0.93;;;12.10;80.80;;;;;;5018798;28;20202;-92
2023/11/14 11:11:15;;;;;;;0.98;0.80;;;12.00;82.70;;;;;;5006846;28;20685;-92
2023/11/14 11:16:50;;;;;;;1.05;0.82;;;12.00;82.10;;;;;;5033353;28;20183;-92
2023/11/14 11:19:28;;;;;;;1.58;0.93;;;11.90;85.00;;;;;;5026976;28;20182;-91
2023/11/14 11:22:16;;;;;;;1.17;0.88;;;11.90;83.50;;;;;;5015419;28;20228;-92
2023/11/14 11:25:21;;;;;;;1.63;1.10;;;11.80;85.90;;;;;;5009171;28;20687;-92
2023/11/14 11:27:48;;;;;;;0.80;0.80;;;11.70;85.40;;;;;;5008142;28;20198;-92
2023/11/14 11:30:16;;;;;;;0.82;0.80;;;11.80;84.20;;;;;;5009910;28;20203;-92
2023/11/14 11:32:45;;;;;;;1.48;0.80;;;11.80;87.40;;;;;;5023462;28;20666;-92
2023/11/14 11:38:12;;;;;;;1.75;0.90;;;11.90;88.00;;;;;;5021671;28;20214;-92
2023/11/14 11:41:12;;;;;;;2.58;0.90;;;11.90;86.10;;;;;;5030662;28;20207;-92
2023/11/14 11:43:44;;;;;;;0.90;0.63;;;12.00;88.60;;;;;;5025332;28;20612;-92
2023/11/14 11:49:32;;;;;;;0.90;0.70;;;12.10;84.90;;;;;;5002784;28;20217;-92
2023/11/14 12:00:43;;;;;;;0.82;0.82;;;12.30;83.60;;;;;;5012047;28;20207;-93
2023/11/14 12:03:12;;;;;;;1.58;0.80;;;12.30;85.90;;;;;;5030235;28;20309;-93
2023/11/14 12:05:38;;;;;;;0.60;0.60;;;12.40;82.50;;;;;;4995210;28;20273;-92
2023/11/14 12:10:48;;;;;;;2.70;0.70;;;12.70;79.30;;;;;;4985014;28;20206;-92
2023/11/14 12:15:58;;;;;;;0.98;0.70;;;12.70;80.70;;;;;;5014558;28;20199;-92
2023/11/14 12:18:25;;;;;;;1.13;0.77;;;12.70;74.70;;;;;;5023941;28;20205;-92
2023/11/14 12:20:52;;;;;;;2.35;0.98;;;12.70;75.70;;;;;;5030771;28;20246;-91
2023/11/14 12:26:25;;;;;;;0.60;0.60;;;12.50;76.40;;;;;;5018834;28;20232;-93
2023/11/14 12:31:59;;;;;;;2.50;0.70;;;12.70;73.20;;;;;;4998504;28;20214;-93
2023/11/14 12:34:27;;;;;;;0.90;0.50;;;12.70;75.60;;;;;;5013994;28;20194;-93
2023/11/14 12:43:22;;;;;;;1.17;0.77;;;12.50;73.50;;;;;;5029358;28;20214;-93
2023/11/14 12:45:55;;;;;;;3.08;0.70;;;12.40;75.50;;;;;;5013024;28;20222;-94
2023/11/14 12:51:06;;;;;;;1.15;0.77;;;12.30;78.30;;;;;;5000995;28;20223;-93
2023/11/14 13:04:40;;;;;;;0.60;0.60;;;12.10;77.90;;;;;;4998525;28;20257;-93
2023/11/14 13:07:07;;;;;;;6.32;4.00;;;12.10;78.10;;;;;;5019364;28;20199;-93
2023/11/14 13:14:59;;;;;;;1.88;0.70;;;12.20;75.30;;;;;;5026440;28;20215;-93
2023/11/14 13:22:49;;;;;;;1.48;0.90;;;12.00;79.20;;;;;;4988497;28;20199;-93
2023/11/14 13:25:37;;;;;;;2.05;0.80;;;11.80;81.40;;;;;;5034971;28;20225;-93
2023/11/14 13:36:15;;;;;;;0.63;0.63;;;11.70;87.60;;;;;;5001346;28;20210;-93
2023/11/14 13:46:48;;;;;;;1.98;0.77;;;11.50;89.90;;;;;;5021378;28;20204;-92
2023/11/14 13:52:27;;;;;;;2.53;1.00;;;11.40;90.30;;;;;;4982048;28;20237;-93
2023/11/14 13:54:55;;;;;;;1.77;1.02;;;11.40;88.70;;;;;;5032594;28;20203;-93
2023/11/14 13:57:22;;;;;;;1.50;1.13;;;11.30;90.10;;;;;;5016005;28;20205;-93
2023/11/14 14:05:57;;;;;;;1.58;0.80;;;10.90;93.20;;;;;;5024300;28;20590;-92
2023/11/14 14:08:43;;;;;;;2.63;0.75;;;10.70;94.60;;;;;;5023823;28;20201;-91
2023/11/14 14:11:11;;;;;;;1.60;1.00;;;10.40;94.90;;;;;;5028549;28;20290;-90
2023/11/14 14:13:39;;;;;;;0.88;0.73;;;10.20;96.20;;;;;;5005297;28;20207;-91
2023/11/14 14:18:49;;;;;;;2.65;1.00;;;9.90;99.50;;;;;;5033956;28;20198;-91
2023/11/14 14:21:18;;;;;;;1.77;1.00;;;9.70;99.90;;;;;;5009281;28;20223;-90
2023/11/14 14:23:45;;;;;;;2.33;1.10;;;9.60;99.90;;;;;;5014010;28;20261;-91
2023/11/14 14:26:12;;;;;;;3.72;1.10;;;9.60;99.90;;;;;;5016117;28;20215;-91
2023/11/14 14:28:39;;;;;;;3.38;1.00;;;9.40;99.90;;;;;;5016030;28;20199;-91
2023/11/14 14:31:12;;;;;;;3.47;1.90;;;9.40;99.90;;;;;;5016897;28;20293;-90
2023/11/14 14:33:40;;;;;;;2.00;1.13;;;9.30;99.90;;;;;;5040507;28;20289;-91
2023/11/14 14:36:08;;;;;;;1.88;1.10;;;9.30;99.90;;;;;;5041142;28;20243;-92
2023/11/14 14:38:35;;;;;;;1.85;1.17;;;9.20;99.90;;;;;;5010561;28;20558;-92
2023/11/14 14:41:02;;;;;;;2.13;1.08;;;9.10;99.90;;;;;;5025420;28;20198;-92
2023/11/14 14:43:31;;;;;;;2.75;1.40;;;9.00;99.90;;;;;;5032750;28;20208;-92
2023/11/14 14:45:58;;;;;;;2.60;1.30;;;9.00;99.90;;;;;;5027898;28;20227;-92
2023/11/14 14:48:34;;;;;;;2.08;1.17;;;8.80;99.90;;;;;;5022411;28;20663;-92
2023/11/14 14:51:04;;;;;;;1.92;1.30;;;8.80;99.90;;;;;;5022622;28;20222;-92
2023/11/14 14:53:32;;;;;;;1.50;1.00;;;8.80;99.90;;;;;;5026803;28;20239;-93
2023/11/14 14:55:59;;;;;;;1.52;1.10;;;8.80;99.90;;;;;;5027684;28;20557;-92
2023/11/14 14:58:26;;;;;;;2.35;1.20;;;8.80;99.90;;;;;;5030278;28;20194;-90
2023/11/14 15:00:53;;;;;;;2.05;1.20;;;8.80;99.90;;;;;;5031387;28;20198;-90
2023/11/14 15:03:20;;;;;;;3.78;1.30;;;8.70;99.90;;;;;;5027423;28;20198;-89
2023/11/14 15:05:49;;;;;;;1.83;1.10;;;8.70;99.90;;;;;;5014031;28;20278;-89
2023/11/14 15:08:16;;;;;;;3.60;1.30;;;8.70;99.90;;;;;;5027004;28;20587;-89
2023/11/14 15:10:44;;;;;;;2.28;1.10;;;8.70;99.90;;;;;;5011324;28;20199;-90
2023/11/14 15:13:11;;;;;;;2.25;1.15;;;8.70;99.90;;;;;;5009060;28;20223;-89
2023/11/14 15:15:40;;;;;;;2.35;1.08;;;8.70;99.90;;;;;;5029510;28;20214;-90
2023/11/14 15:18:06;;;;;;;1.48;1.10;;;8.70;99.90;;;;;;4993426;28;20651;-90
2023/11/14 15:20:33;;;;;;;2.17;1.20;;;8.60;99.90;;;;;;5027875;28;20201;-90
2023/11/14 15:23:04;;;;;;;2.35;1.17;;;8.60;99.90;;;;;;5030285;28;20213;-89
2023/11/14 15:25:34;;;;;;;2.53;1.40;;;8.70;99.90;;;;;;5013232;28;20332;-89
2023/11/14 15:28:00;;;;;;;4.95;1.40;;;8.60;99.90;;;;;;4994662;28;20203;-89
2023/11/14 15:30:29;;;;;;;1.92;1.30;;;8.60;99.90;;;;;;5010834;28;20199;-89
2023/11/14 15:32:57;;;;;;;1.23;1.10;;;8.60;99.90;;;;;;5007604;28;20199;-91
2023/11/14 15:35:43;;;;;;;2.50;1.40;;;8.60;99.90;;;;;;5033242;28;20202;-93
2023/11/14 15:44:00;;;;;;;1.67;1.10;;;8.60;99.90;;;;;;4989074;28;20293;-94
2023/11/14 15:46:27;;;;;;;2.17;1.30;;;8.60;99.90;;;;;;5032237;28;20313;-93
2023/11/14 15:48:54;;;;;;;1.67;1.15;;;8.60;99.90;;;;;;5022563;28;20206;-91
2023/11/14 15:51:21;;;;;;;3.80;1.27;;;8.50;99.90;;;;;;5021975;28;20226;-91
2023/11/14 15:53:52;;;;;;;2.30;1.33;;;8.50;99.90;;;;;;5020381;28;20202;-92
2023/11/14 15:56:19;;;;;;;2.70;1.30;;;8.50;99.90;;;;;;4988459;28;20195;-92
2023/11/14 15:58:47;;;;;;;1.63;1.17;;;8.60;99.90;;;;;;5032687;28;20209;-92
2023/11/14 16:01:14;;;;;;;5.38;1.40;;;8.50;99.90;;;;;;5007688;28;20252;-93
2023/11/14 16:03:41;;;;;;;1.85;1.20;;;8.50;99.90;;;;;;5008866;28;20194;-93
2023/11/14 16:06:08;;;;;;;1.67;1.20;;;8.60;99.90;;;;;;5030427;28;20398;-92
2023/11/14 16:08:36;;;;;;;2.90;1.35;;;8.50;99.90;;;;;;5012836;28;20257;-92
2023/11/14 16:13:45;;;;;;;2.05;1.38;;;8.50;99.90;;;;;;4993379;28;20293;-92
2023/11/14 16:16:12;;;;;;;2.90;1.17;;;8.50;99.90;;;;;;5033939;28;20198;-92
2023/11/14 16:21:19;;;;;;;1.63;1.40;;;8.50;99.90;;;;;;5026310;28;20594;-92
2023/11/14 16:23:46;;;;;;;3.47;1.50;;;8.50;99.90;;;;;;5025655;28;20660;-91
2023/11/14 16:26:14;;;;;;;5.05;1.42;;;8.50;99.90;;;;;;5023765;28;20341;-90
2023/11/14 16:28:42;;;;;;;1.85;1.60;;;8.50;99.90;;;;;;5004575;28;20199;-91
2023/11/14 16:31:09;;;;;;;2.63;1.60;;;8.50;99.90;;;;;;5024882;28;20219;-92
2023/11/14 16:33:36;;;;;;;2.20;1.50;;;8.50;99.90;;;;;;5005976;28;20225;-91
2023/11/14 16:36:04;;;;;;;2.13;1.40;;;8.50;99.90;;;;;;5010975;28;20203;-92
2023/11/14 16:38:31;;;;;;;4.18;1.30;;;8.60;99.90;;;;;;5008170;28;20652;-91
2023/11/14 16:40:59;;;;;;;3.20;1.50;;;8.70;99.90;;;;;;5027512;28;20195;-92
2023/11/14 16:46:09;;;;;;;1.70;1.30;;;8.50;99.90;;;;;;5006077;28;20256;-91
2023/11/14 16:48:36;;;;;;;1.45;1.20;;;8.50;99.90;;;;;;5027210;28;20606;-91
2023/11/14 16:51:04;;;;;;;2.60;1.40;;;8.50;99.90;;;;;;5022804;28;20231;-92
2023/11/14 16:53:30;;;;;;;4.25;1.33;;;8.60;99.90;;;;;;5002052;28;20223;-91
2023/11/14 16:55:57;;;;;;;2.33;1.40;;;8.60;99.90;;;;;;5005963;28;20664;-92
2023/11/14 16:58:24;;;;;;;1.70;1.30;;;8.60;99.90;;;;;;5012627;28;20205;-92
2023/11/14 17:00:53;;;;;;;1.85;1.55;;;8.50;99.90;;;;;;5028570;28;20625;-92
2023/11/14 17:03:20;;;;;;;1.80;1.45;;;8.50;99.90;;;;;;5024427;28;20554;-92
2023/11/14 17:05:46;;;;;;;2.80;2.17;;;8.60;99.90;;;;;;5012107;28;20226;-90
2023/11/14 17:08:13;;;;;;;2.97;2.20;;;8.70;99.90;;;;;;5039842;28;20199;-92
2023/11/14 17:10:40;;;;;;;3.97;2.47;;;8.70;99.90;;;;;;5016020;28;20198;-91
2023/11/14 17:13:08;;;;;;;2.83;2.00;;;8.70;99.90;;;;;;5031792;28;20206;-92
2023/11/14 17:15:35;;;;;;;3.85;2.03;;;8.60;99.90;;;;;;5030157;28;20201;-90
2023/11/14 17:18:05;;;;;;;3.38;1.98;;;8.50;99.90;;;;;;5031492;28;20565;-90
2023/11/14 17:20:50;;;;;;;2.35;1.70;;;8.50;99.90;;;;;;5016035;28;20196;-90
2023/11/14 17:23:18;;;;;;;2.90;1.90;;;8.40;99.90;;;;;;5009002;28;20199;-90
2023/11/14 17:25:46;;;;;;;3.25;1.90;;;8.50;99.90;;;;;;5023722;28;20584;-90
2023/11/14 17:28:16;;;;;;;5.75;1.85;;;8.50;99.90;;;;;;5031702;28;20297;-91
2023/11/14 17:36:57;;;;;;;3.17;1.90;;;8.60;99.90;;;;;;5021883;28;20202;-91
2023/11/14 17:39:24;;;;;;;2.92;1.90;;;8.50;99.90;;;;;;5028540;28;20203;-92
2023/11/14 17:41:51;;;;;;;3.25;1.88;;;8.50;99.90;;;;;;5033046;28;20203;-92
2023/11/14 17:44:21;;;;;;;3.90;2.13;;;8.50;99.90;;;;;;5013549;28;20199;-91
2023/11/14 17:46:48;;;;;;;3.88;2.20;;;8.40;99.90;;;;;;5031398;28;20284;-90